sensor_id;sensor_type;location;lat;lon;timestamp;pressure;altitude;pressure_sealevel;temperature;humidity
70488;BME280;57976;48.174;16.370;2022-07-29T00:00:37;99099.88;;;23.15;52.66
70488;BME280;57976;48.174;16.370;2022-07-29T00:02:43;99095.84;;;23.12;52.79
70488;BME280;57976;48.174;16.370;2022-07-29T00:04:45;99098.15;;;23.09;52.90
70488;BME280;57976;48.174;16.370;2022-07-29T00:06:48;99095.71;;;23.06;52.92
70488;BME280;57976;48.174;16.370;2022-07-29T00:08:52;99099.08;;;23.03;53.05
70488;BME280;57976;48.174;16.370;2022-07-29T00:10:54;99099.05;;;23.01;53.23
70488;BME280;57976;48.174;16.370;2022-07-29T00:12:57;99097.96;;;23.01;53.29
70488;BME280;57976;48.174;16.370;2022-07-29T00:15:00;99096.79;;;22.98;53.36
70488;BME280;57976;48.174;16.370;2022-07-29T00:17:03;99097.23;;;22.97;53.61
70488;BME280;57976;48.174;16.370;2022-07-29T00:19:09;99096.59;;;22.94;53.74
70488;BME280;57976;48.174;16.370;2022-07-29T00:21:13;99091.46;;;22.93;53.77
70488;BME280;57976;48.174;16.370;2022-07-29T00:23:15;99095.44;;;22.92;53.81
70488;BME280;57976;48.174;16.370;2022-07-29T00:25:18;99099.90;;;22.90;53.96
70488;BME280;57976;48.174;16.370;2022-07-29T00:27:21;99098.25;;;22.87;54.17
70488;BME280;57976;48.174;16.370;2022-07-29T00:29:26;99094.43;;;22.84;54.15
70488;BME280;57976;48.174;16.370;2022-07-29T00:31:37;99097.15;;;22.83;54.27
70488;BME280;57976;48.174;16.370;2022-07-29T00:33:40;99090.73;;;22.79;54.34
70488;BME280;57976;48.174;16.370;2022-07-29T00:35:42;99093.10;;;22.76;54.38
70488;BME280;57976;48.174;16.370;2022-07-29T00:37:45;99085.02;;;22.72;54.68
70488;BME280;57976;48.174;16.370;2022-07-29T00:39:48;99083.33;;;22.68;54.64
70488;BME280;57976;48.174;16.370;2022-07-29T00:41:52;99081.58;;;22.68;55.00
70488;BME280;57976;48.174;16.370;2022-07-29T00:43:55;99080.02;;;22.67;54.99
70488;BME280;57976;48.174;16.370;2022-07-29T00:45:57;99084.11;;;22.64;55.30
70488;BME280;57976;48.174;16.370;2022-07-29T00:48:00;99079.59;;;22.60;55.27
70488;BME280;57976;48.174;16.370;2022-07-29T00:50:04;99079.20;;;22.57;55.35
70488;BME280;57976;48.174;16.370;2022-07-29T00:52:08;99079.63;;;22.53;55.67
70488;BME280;57976;48.174;16.370;2022-07-29T00:54:12;99077.30;;;22.50;55.59
70488;BME280;57976;48.174;16.370;2022-07-29T00:56:16;99073.62;;;22.50;55.82
70488;BME280;57976;48.174;16.370;2022-07-29T00:58:18;99072.16;;;22.49;55.85
70488;BME280;57976;48.174;16.370;2022-07-29T01:00:23;99077.92;;;22.48;55.77
70488;BME280;57976;48.174;16.370;2022-07-29T01:02:30;99079.05;;;22.42;55.84
70488;BME280;57976;48.174;16.370;2022-07-29T01:04:33;99080.15;;;22.40;56.20
70488;BME280;57976;48.174;16.370;2022-07-29T01:06:36;99079.58;;;22.38;56.12
70488;BME280;57976;48.174;16.370;2022-07-29T01:08:39;99076.22;;;22.37;56.25
70488;BME280;57976;48.174;16.370;2022-07-29T01:10:43;99078.09;;;22.35;56.31
70488;BME280;57976;48.174;16.370;2022-07-29T01:12:47;99078.66;;;22.31;56.46
70488;BME280;57976;48.174;16.370;2022-07-29T01:14:53;99073.86;;;22.26;56.58
70488;BME280;57976;48.174;16.370;2022-07-29T01:17:02;99073.77;;;22.23;56.76
70488;BME280;57976;48.174;16.370;2022-07-29T01:19:22;99075.09;;;22.22;56.79
70488;BME280;57976;48.174;16.370;2022-07-29T01:21:51;99071.64;;;22.20;56.95
70488;BME280;57976;48.174;16.370;2022-07-29T01:24:03;99069.52;;;22.18;57.07
70488;BME280;57976;48.174;16.370;2022-07-29T01:26:34;99066.39;;;22.15;57.18
70488;BME280;57976;48.174;16.370;2022-07-29T01:28:52;99067.98;;;22.14;57.28
70488;BME280;57976;48.174;16.370;2022-07-29T01:30:59;99071.02;;;22.13;57.52
70488;BME280;57976;48.174;16.370;2022-07-29T01:33:10;99069.77;;;22.13;57.59
70488;BME280;57976;48.174;16.370;2022-07-29T01:35:19;99069.30;;;22.11;57.80
70488;BME280;57976;48.174;16.370;2022-07-29T01:37:28;99072.37;;;22.07;57.93
70488;BME280;57976;48.174;16.370;2022-07-29T01:39:34;99075.89;;;22.07;58.04
70488;BME280;57976;48.174;16.370;2022-07-29T01:41:40;99078.02;;;22.07;58.40
70488;BME280;57976;48.174;16.370;2022-07-29T01:43:51;99076.72;;;22.05;58.30
70488;BME280;57976;48.174;16.370;2022-07-29T01:45:59;99077.86;;;22.04;58.50
70488;BME280;57976;48.174;16.370;2022-07-29T01:48:06;99075.39;;;22.02;58.70
70488;BME280;57976;48.174;16.370;2022-07-29T01:50:16;99080.33;;;22.00;58.67
70488;BME280;57976;48.174;16.370;2022-07-29T01:52:24;99081.41;;;22.02;58.83
70488;BME280;57976;48.174;16.370;2022-07-29T01:54:34;99082.38;;;22.03;58.63
70488;BME280;57976;48.174;16.370;2022-07-29T01:56:39;99083.30;;;22.02;58.64
70488;BME280;57976;48.174;16.370;2022-07-29T01:58:46;99081.05;;;21.98;58.76
70488;BME280;57976;48.174;16.370;2022-07-29T02:00:51;99081.90;;;21.94;58.77
70488;BME280;57976;48.174;16.370;2022-07-29T02:02:54;99076.80;;;21.92;59.07
70488;BME280;57976;48.174;16.370;2022-07-29T02:04:59;99074.37;;;21.90;59.55
70488;BME280;57976;48.174;16.370;2022-07-29T02:07:05;99075.58;;;21.88;59.18
70488;BME280;57976;48.174;16.370;2022-07-29T02:09:10;99075.31;;;21.87;59.18
70488;BME280;57976;48.174;16.370;2022-07-29T02:11:14;99077.65;;;21.86;59.29
70488;BME280;57976;48.174;16.370;2022-07-29T02:13:17;99077.60;;;21.85;59.44
70488;BME280;57976;48.174;16.370;2022-07-29T02:15:23;99081.52;;;21.82;59.53
70488;BME280;57976;48.174;16.370;2022-07-29T02:17:29;99082.11;;;21.79;59.53
70488;BME280;57976;48.174;16.370;2022-07-29T02:19:33;99079.32;;;21.74;59.84
70488;BME280;57976;48.174;16.370;2022-07-29T02:21:39;99077.71;;;21.69;59.99
70488;BME280;57976;48.174;16.370;2022-07-29T02:23:43;99078.59;;;21.69;60.08
70488;BME280;57976;48.174;16.370;2022-07-29T02:25:55;99082.98;;;21.68;60.42
70488;BME280;57976;48.174;16.370;2022-07-29T02:27:59;99079.69;;;21.65;60.34
70488;BME280;57976;48.174;16.370;2022-07-29T02:30:04;99080.95;;;21.63;60.64
70488;BME280;57976;48.174;16.370;2022-07-29T02:32:10;99075.96;;;21.62;60.55
70488;BME280;57976;48.174;16.370;2022-07-29T02:34:17;99082.15;;;21.59;60.96
70488;BME280;57976;48.174;16.370;2022-07-29T02:36:24;99077.98;;;21.55;60.69
70488;BME280;57976;48.174;16.370;2022-07-29T02:38:29;99079.59;;;21.50;60.83
70488;BME280;57976;48.174;16.370;2022-07-29T02:40:34;99082.09;;;21.49;60.98
70488;BME280;57976;48.174;16.370;2022-07-29T02:42:38;99083.02;;;21.47;61.18
70488;BME280;57976;48.174;16.370;2022-07-29T02:44:43;99084.93;;;21.43;61.29
70488;BME280;57976;48.174;16.370;2022-07-29T02:46:51;99086.73;;;21.42;61.47
70488;BME280;57976;48.174;16.370;2022-07-29T02:48:59;99084.88;;;21.42;61.75
70488;BME280;57976;48.174;16.370;2022-07-29T02:51:08;99081.45;;;21.46;61.64
70488;BME280;57976;48.174;16.370;2022-07-29T02:53:34;99075.09;;;21.49;61.55
70488;BME280;57976;48.174;16.370;2022-07-29T02:55:43;99071.73;;;21.49;61.48
70488;BME280;57976;48.174;16.370;2022-07-29T02:57:54;99066.27;;;21.47;61.71
70488;BME280;57976;48.174;16.370;2022-07-29T03:00:00;99069.08;;;21.48;61.87
70488;BME280;57976;48.174;16.370;2022-07-29T03:02:05;99066.73;;;21.50;61.90
70488;BME280;57976;48.174;16.370;2022-07-29T03:04:10;99065.52;;;21.51;61.87
70488;BME280;57976;48.174;16.370;2022-07-29T03:06:13;99066.54;;;21.56;61.92
70488;BME280;57976;48.174;16.370;2022-07-29T03:08:37;99066.59;;;21.58;61.77
70488;BME280;57976;48.174;16.370;2022-07-29T03:10:43;99068.48;;;21.58;61.70
70488;BME280;57976;48.174;16.370;2022-07-29T03:12:47;99067.41;;;21.58;61.72
70488;BME280;57976;48.174;16.370;2022-07-29T03:14:51;99066.41;;;21.59;61.67
70488;BME280;57976;48.174;16.370;2022-07-29T03:16:54;99064.73;;;21.61;61.67
70488;BME280;57976;48.174;16.370;2022-07-29T03:18:57;99069.83;;;21.63;62.00
70488;BME280;57976;48.174;16.370;2022-07-29T03:21:00;99069.48;;;21.64;61.87
70488;BME280;57976;48.174;16.370;2022-07-29T03:23:03;99070.80;;;21.66;61.72
70488;BME280;57976;48.174;16.370;2022-07-29T03:25:09;99070.83;;;21.67;61.89
70488;BME280;57976;48.174;16.370;2022-07-29T03:27:12;99069.70;;;21.67;61.65
70488;BME280;57976;48.174;16.370;2022-07-29T03:29:15;99062.33;;;21.67;61.71
70488;BME280;57976;48.174;16.370;2022-07-29T03:31:21;99059.97;;;21.69;61.69
70488;BME280;57976;48.174;16.370;2022-07-29T03:33:24;99060.73;;;21.70;61.59
70488;BME280;57976;48.174;16.370;2022-07-29T03:35:27;99055.52;;;21.71;61.60
70488;BME280;57976;48.174;16.370;2022-07-29T03:37:33;99055.38;;;21.69;61.79
70488;BME280;57976;48.174;16.370;2022-07-29T03:39:39;99055.27;;;21.68;61.71
70488;BME280;57976;48.174;16.370;2022-07-29T03:41:46;99059.23;;;21.69;61.86
70488;BME280;57976;48.174;16.370;2022-07-29T03:43:50;99061.70;;;21.72;61.95
70488;BME280;57976;48.174;16.370;2022-07-29T03:45:55;99064.23;;;21.74;61.94
70488;BME280;57976;48.174;16.370;2022-07-29T03:48:02;99063.80;;;21.75;61.70
70488;BME280;57976;48.174;16.370;2022-07-29T03:50:11;99069.09;;;21.78;61.67
70488;BME280;57976;48.174;16.370;2022-07-29T03:52:14;99066.38;;;21.79;61.66
70488;BME280;57976;48.174;16.370;2022-07-29T03:54:17;99060.63;;;21.80;61.64
70488;BME280;57976;48.174;16.370;2022-07-29T03:56:22;99058.19;;;21.79;61.55
70488;BME280;57976;48.174;16.370;2022-07-29T03:58:27;99061.87;;;21.79;61.65
70488;BME280;57976;48.174;16.370;2022-07-29T04:00:30;99064.64;;;21.81;61.94
70488;BME280;57976;48.174;16.370;2022-07-29T04:02:34;99067.67;;;21.84;61.97
70488;BME280;57976;48.174;16.370;2022-07-29T04:04:38;99067.38;;;21.90;61.75
70488;BME280;57976;48.174;16.370;2022-07-29T04:06:42;99070.98;;;21.95;61.52
70488;BME280;57976;48.174;16.370;2022-07-29T04:08:46;99074.36;;;21.99;61.51
70488;BME280;57976;48.174;16.370;2022-07-29T04:10:48;99073.01;;;22.01;61.39
70488;BME280;57976;48.174;16.370;2022-07-29T04:12:51;99073.27;;;22.04;61.35
70488;BME280;57976;48.174;16.370;2022-07-29T04:14:54;99071.72;;;22.07;61.37
70488;BME280;57976;48.174;16.370;2022-07-29T04:16:56;99073.92;;;22.11;61.17
70488;BME280;57976;48.174;16.370;2022-07-29T04:18:59;99071.71;;;22.16;60.93
70488;BME280;57976;48.174;16.370;2022-07-29T04:21:02;99072.10;;;22.22;60.73
70488;BME280;57976;48.174;16.370;2022-07-29T04:23:05;99074.23;;;22.28;60.54
70488;BME280;57976;48.174;16.370;2022-07-29T04:25:09;99078.42;;;22.34;60.34
70488;BME280;57976;48.174;16.370;2022-07-29T04:27:12;99080.52;;;22.36;60.14
70488;BME280;57976;48.174;16.370;2022-07-29T04:29:15;99082.85;;;22.37;59.94
70488;BME280;57976;48.174;16.370;2022-07-29T04:31:17;99081.59;;;22.38;59.82
70488;BME280;57976;48.174;16.370;2022-07-29T04:33:27;99078.67;;;22.42;59.87
70488;BME280;57976;48.174;16.370;2022-07-29T04:35:36;99078.27;;;22.45;59.94
70488;BME280;57976;48.174;16.370;2022-07-29T04:37:40;99080.41;;;22.50;59.86
70488;BME280;57976;48.174;16.370;2022-07-29T04:39:43;99075.77;;;22.54;59.86
70488;BME280;57976;48.174;16.370;2022-07-29T04:41:46;99078.13;;;22.55;60.04
70488;BME280;57976;48.174;16.370;2022-07-29T04:43:48;99075.39;;;22.58;59.71
70488;BME280;57976;48.174;16.370;2022-07-29T04:45:51;99079.86;;;22.61;59.42
70488;BME280;57976;48.174;16.370;2022-07-29T04:47:54;99082.35;;;22.67;59.37
70488;BME280;57976;48.174;16.370;2022-07-29T04:49:57;99079.96;;;22.72;59.29
70488;BME280;57976;48.174;16.370;2022-07-29T04:51:59;99079.78;;;22.75;59.24
70488;BME280;57976;48.174;16.370;2022-07-29T04:54:02;99082.30;;;22.79;58.95
70488;BME280;57976;48.174;16.370;2022-07-29T04:56:05;99079.89;;;22.81;58.88
70488;BME280;57976;48.174;16.370;2022-07-29T04:58:08;99080.32;;;22.88;58.69
70488;BME280;57976;48.174;16.370;2022-07-29T05:00:12;99084.45;;;22.93;58.50
70488;BME280;57976;48.174;16.370;2022-07-29T05:02:15;99084.97;;;22.94;58.37
70488;BME280;57976;48.174;16.370;2022-07-29T05:04:18;99087.71;;;22.97;58.30
70488;BME280;57976;48.174;16.370;2022-07-29T05:06:21;99089.54;;;23.00;58.28
70488;BME280;57976;48.174;16.370;2022-07-29T05:08:24;99091.70;;;23.01;58.29
70488;BME280;57976;48.174;16.370;2022-07-29T05:10:26;99094.65;;;23.04;58.13
70488;BME280;57976;48.174;16.370;2022-07-29T05:12:29;99096.73;;;23.10;58.07
70488;BME280;57976;48.174;16.370;2022-07-29T05:14:32;99098.73;;;23.16;57.92
70488;BME280;57976;48.174;16.370;2022-07-29T05:16:35;99099.80;;;23.21;57.85
70488;BME280;57976;48.174;16.370;2022-07-29T05:18:38;99100.05;;;23.28;57.64
70488;BME280;57976;48.174;16.370;2022-07-29T05:20:40;99102.68;;;23.33;57.48
70488;BME280;57976;48.174;16.370;2022-07-29T05:22:43;99100.71;;;23.39;57.41
70488;BME280;57976;48.174;16.370;2022-07-29T05:24:46;99097.35;;;23.43;57.29
70488;BME280;57976;48.174;16.370;2022-07-29T05:26:48;99103.14;;;23.51;57.15
70488;BME280;57976;48.174;16.370;2022-07-29T05:28:54;99103.75;;;23.58;57.13
70488;BME280;57976;48.174;16.370;2022-07-29T05:30:57;99106.25;;;23.68;57.07
70488;BME280;57976;48.174;16.370;2022-07-29T05:32:59;99106.02;;;23.73;56.94
70488;BME280;57976;48.174;16.370;2022-07-29T05:35:02;99107.95;;;23.70;56.88
70488;BME280;57976;48.174;16.370;2022-07-29T05:37:05;99109.98;;;23.65;56.86
70488;BME280;57976;48.174;16.370;2022-07-29T05:39:09;99110.15;;;23.61;57.13
70488;BME280;57976;48.174;16.370;2022-07-29T05:41:11;99112.64;;;23.61;57.21
70488;BME280;57976;48.174;16.370;2022-07-29T05:43:14;99108.77;;;23.62;57.21
70488;BME280;57976;48.174;16.370;2022-07-29T05:45:16;99109.19;;;23.63;57.08
70488;BME280;57976;48.174;16.370;2022-07-29T05:47:19;99104.06;;;23.64;56.96
70488;BME280;57976;48.174;16.370;2022-07-29T05:49:25;99104.94;;;23.64;56.95
70488;BME280;57976;48.174;16.370;2022-07-29T05:51:31;99111.58;;;23.63;56.88
70488;BME280;57976;48.174;16.370;2022-07-29T05:53:33;99111.23;;;23.67;56.88
70488;BME280;57976;48.174;16.370;2022-07-29T05:55:36;99112.61;;;23.73;57.04
70488;BME280;57976;48.174;16.370;2022-07-29T05:57:40;99113.56;;;23.79;56.70
70488;BME280;57976;48.174;16.370;2022-07-29T05:59:43;99116.64;;;23.86;56.86
70488;BME280;57976;48.174;16.370;2022-07-29T06:01:46;99117.78;;;23.96;56.57
70488;BME280;57976;48.174;16.370;2022-07-29T06:03:49;99120.11;;;24.08;56.53
70488;BME280;57976;48.174;16.370;2022-07-29T06:05:51;99119.25;;;24.15;56.22
70488;BME280;57976;48.174;16.370;2022-07-29T06:07:54;99114.59;;;24.21;56.28
70488;BME280;57976;48.174;16.370;2022-07-29T06:09:56;99115.58;;;24.28;56.05
70488;BME280;57976;48.174;16.370;2022-07-29T06:11:59;99116.86;;;24.33;55.71
70488;BME280;57976;48.174;16.370;2022-07-29T06:14:03;99117.77;;;24.37;55.87
70488;BME280;57976;48.174;16.370;2022-07-29T06:16:11;99118.51;;;24.40;55.81
70488;BME280;57976;48.174;16.370;2022-07-29T06:18:17;99119.96;;;24.41;55.47
70488;BME280;57976;48.174;16.370;2022-07-29T06:20:22;99120.31;;;24.42;55.50
70488;BME280;57976;48.174;16.370;2022-07-29T06:22:29;99122.86;;;24.47;55.50
70488;BME280;57976;48.174;16.370;2022-07-29T06:24:32;99128.81;;;24.52;55.27
70488;BME280;57976;48.174;16.370;2022-07-29T06:26:34;99131.05;;;24.55;54.92
70488;BME280;57976;48.174;16.370;2022-07-29T06:28:42;99127.64;;;24.54;55.03
70488;BME280;57976;48.174;16.370;2022-07-29T06:30:46;99132.54;;;24.54;54.93
70488;BME280;57976;48.174;16.370;2022-07-29T06:32:50;99128.70;;;24.56;55.06
70488;BME280;57976;48.174;16.370;2022-07-29T06:34:53;99129.63;;;24.63;54.98
70488;BME280;57976;48.174;16.370;2022-07-29T06:37:15;99127.05;;;24.67;54.64
70488;BME280;57976;48.174;16.370;2022-07-29T06:39:18;99130.67;;;24.72;54.69
70488;BME280;57976;48.174;16.370;2022-07-29T06:41:21;99125.04;;;24.75;54.68
70488;BME280;57976;48.174;16.370;2022-07-29T06:43:23;99128.77;;;24.80;54.74
70488;BME280;57976;48.174;16.370;2022-07-29T06:45:28;99130.35;;;24.87;54.56
70488;BME280;57976;48.174;16.370;2022-07-29T06:47:31;99127.38;;;24.94;54.63
70488;BME280;57976;48.174;16.370;2022-07-29T06:49:33;99127.77;;;25.02;54.33
70488;BME280;57976;48.174;16.370;2022-07-29T06:51:36;99126.39;;;25.07;54.26
70488;BME280;57976;48.174;16.370;2022-07-29T06:53:42;99127.70;;;25.09;54.12
70488;BME280;57976;48.174;16.370;2022-07-29T06:56:06;99130.85;;;25.11;54.21
70488;BME280;57976;48.174;16.370;2022-07-29T06:58:09;99134.52;;;25.13;53.94
70488;BME280;57976;48.174;16.370;2022-07-29T07:00:14;99138.80;;;25.17;54.35
70488;BME280;57976;48.174;16.370;2022-07-29T07:02:19;99138.25;;;25.20;54.01
70488;BME280;57976;48.174;16.370;2022-07-29T07:04:22;99144.38;;;25.23;53.77
70488;BME280;57976;48.174;16.370;2022-07-29T07:06:25;99143.45;;;25.25;53.55
70488;BME280;57976;48.174;16.370;2022-07-29T07:08:27;99143.83;;;25.28;53.70
70488;BME280;57976;48.174;16.370;2022-07-29T07:10:30;99143.45;;;25.34;53.55
70488;BME280;57976;48.174;16.370;2022-07-29T07:12:33;99137.98;;;25.38;53.49
70488;BME280;57976;48.174;16.370;2022-07-29T07:14:35;99139.75;;;25.43;53.73
70488;BME280;57976;48.174;16.370;2022-07-29T07:16:38;99139.78;;;25.48;53.58
70488;BME280;57976;48.174;16.370;2022-07-29T07:18:41;99138.63;;;25.56;53.37
70488;BME280;57976;48.174;16.370;2022-07-29T07:20:44;99143.98;;;25.62;53.25
70488;BME280;57976;48.174;16.370;2022-07-29T07:22:47;99140.27;;;25.68;53.17
70488;BME280;57976;48.174;16.370;2022-07-29T07:24:53;99143.52;;;25.74;52.93
70488;BME280;57976;48.174;16.370;2022-07-29T07:26:56;99146.40;;;25.82;52.92
70488;BME280;57976;48.174;16.370;2022-07-29T07:28:58;99152.84;;;25.90;52.40
70488;BME280;57976;48.174;16.370;2022-07-29T07:31:01;99147.02;;;25.86;52.79
70488;BME280;57976;48.174;16.370;2022-07-29T07:33:03;99153.11;;;25.82;52.89
70488;BME280;57976;48.174;16.370;2022-07-29T07:35:09;99150.06;;;25.74;53.26
70488;BME280;57976;48.174;16.370;2022-07-29T07:37:12;99151.68;;;25.67;53.18
70488;BME280;57976;48.174;16.370;2022-07-29T07:39:14;99149.82;;;25.65;53.41
70488;BME280;57976;48.174;16.370;2022-07-29T07:41:17;99151.30;;;25.65;53.61
70488;BME280;57976;48.174;16.370;2022-07-29T07:43:20;99146.70;;;25.66;53.36
70488;BME280;57976;48.174;16.370;2022-07-29T07:45:25;99149.73;;;25.72;53.59
70488;BME280;57976;48.174;16.370;2022-07-29T07:47:28;99148.27;;;25.79;53.54
70488;BME280;57976;48.174;16.370;2022-07-29T07:49:31;99151.71;;;25.89;53.15
70488;BME280;57976;48.174;16.370;2022-07-29T07:51:33;99149.55;;;25.95;52.80
70488;BME280;57976;48.174;16.370;2022-07-29T07:53:36;99152.42;;;26.05;52.44
70488;BME280;57976;48.174;16.370;2022-07-29T07:55:41;99151.98;;;26.11;52.34
70488;BME280;57976;48.174;16.370;2022-07-29T07:58:04;99155.86;;;26.24;52.08
70488;BME280;57976;48.174;16.370;2022-07-29T08:00:09;99153.80;;;26.35;51.89
70488;BME280;57976;48.174;16.370;2022-07-29T08:02:14;99157.63;;;26.49;51.41
70488;BME280;57976;48.174;16.370;2022-07-29T08:04:17;99150.56;;;26.63;51.52
70488;BME280;57976;48.174;16.370;2022-07-29T08:06:27;99153.89;;;26.81;51.24
70488;BME280;57976;48.174;16.370;2022-07-29T08:08:30;99156.46;;;26.97;50.85
70488;BME280;57976;48.174;16.370;2022-07-29T08:10:33;99157.13;;;27.12;50.37
70488;BME280;57976;48.174;16.370;2022-07-29T08:12:36;99157.08;;;27.23;49.90
70488;BME280;57976;48.174;16.370;2022-07-29T08:14:39;99162.45;;;27.35;49.53
70488;BME280;57976;48.174;16.370;2022-07-29T08:16:41;99158.58;;;27.41;49.39
70488;BME280;57976;48.174;16.370;2022-07-29T08:18:45;99156.77;;;27.49;49.68
70488;BME280;57976;48.174;16.370;2022-07-29T08:20:48;99156.89;;;27.64;49.48
70488;BME280;57976;48.174;16.370;2022-07-29T08:22:51;99157.04;;;27.76;49.03
70488;BME280;57976;48.174;16.370;2022-07-29T08:24:54;99157.77;;;27.83;48.70
70488;BME280;57976;48.174;16.370;2022-07-29T08:26:57;99155.29;;;27.84;48.50
70488;BME280;57976;48.174;16.370;2022-07-29T08:29:00;99157.66;;;27.83;48.86
70488;BME280;57976;48.174;16.370;2022-07-29T08:31:03;99162.13;;;27.84;48.67
70488;BME280;57976;48.174;16.370;2022-07-29T08:33:06;99157.65;;;27.86;48.75
70488;BME280;57976;48.174;16.370;2022-07-29T08:35:09;99153.21;;;27.89;48.85
70488;BME280;57976;48.174;16.370;2022-07-29T08:37:12;99156.98;;;27.93;48.57
70488;BME280;57976;48.174;16.370;2022-07-29T08:39:18;99154.25;;;27.91;48.38
70488;BME280;57976;48.174;16.370;2022-07-29T08:41:21;99154.35;;;27.92;48.59
70488;BME280;57976;48.174;16.370;2022-07-29T08:43:24;99149.45;;;27.92;48.49
70488;BME280;57976;48.174;16.370;2022-07-29T08:45:29;99157.36;;;27.89;48.32
70488;BME280;57976;48.174;16.370;2022-07-29T08:47:32;99156.53;;;27.90;48.57
70488;BME280;57976;48.174;16.370;2022-07-29T08:49:35;99156.24;;;27.97;48.52
70488;BME280;57976;48.174;16.370;2022-07-29T08:51:40;99160.63;;;28.04;48.17
70488;BME280;57976;48.174;16.370;2022-07-29T08:53:51;99156.38;;;28.05;47.98
70488;BME280;57976;48.174;16.370;2022-07-29T08:55:55;99164.76;;;28.07;47.55
70488;BME280;57976;48.174;16.370;2022-07-29T08:58:00;99153.79;;;28.04;47.79
70488;BME280;57976;48.174;16.370;2022-07-29T09:00:06;99156.05;;;28.05;47.83
70488;BME280;57976;48.174;16.370;2022-07-29T09:02:22;99156.13;;;28.05;47.97
70488;BME280;57976;48.174;16.370;2022-07-29T09:04:29;99152.02;;;28.03;47.85
70488;BME280;57976;48.174;16.370;2022-07-29T09:06:34;99159.09;;;28.05;47.82
70488;BME280;57976;48.174;16.370;2022-07-29T09:08:40;99157.44;;;28.10;47.90
70488;BME280;57976;48.174;16.370;2022-07-29T09:10:44;99151.11;;;28.13;47.85
70488;BME280;57976;48.174;16.370;2022-07-29T09:12:47;99149.08;;;28.18;48.03
70488;BME280;57976;48.174;16.370;2022-07-29T09:14:50;99151.92;;;28.25;47.76
70488;BME280;57976;48.174;16.370;2022-07-29T09:16:55;99150.12;;;28.27;47.28
70488;BME280;57976;48.174;16.370;2022-07-29T09:18:58;99149.02;;;28.25;47.35
70488;BME280;57976;48.174;16.370;2022-07-29T09:21:01;99142.95;;;28.23;47.47
70488;BME280;57976;48.174;16.370;2022-07-29T09:23:08;99148.64;;;28.27;47.25
70488;BME280;57976;48.174;16.370;2022-07-29T09:25:12;99142.74;;;28.32;47.20
70488;BME280;57976;48.174;16.370;2022-07-29T09:27:23;99143.94;;;28.39;47.25
70488;BME280;57976;48.174;16.370;2022-07-29T09:29:26;99145.91;;;28.46;46.81
70488;BME280;57976;48.174;16.370;2022-07-29T09:31:35;99145.33;;;28.45;46.58
70488;BME280;57976;48.174;16.370;2022-07-29T09:33:38;99147.10;;;28.50;46.52
70488;BME280;57976;48.174;16.370;2022-07-29T09:35:41;99141.85;;;28.54;46.62
70488;BME280;57976;48.174;16.370;2022-07-29T09:38:10;99140.95;;;28.62;46.55
70488;BME280;57976;48.174;16.370;2022-07-29T09:40:15;99136.48;;;28.68;46.13
70488;BME280;57976;48.174;16.370;2022-07-29T09:42:28;99143.54;;;28.68;46.09
70488;BME280;57976;48.174;16.370;2022-07-29T09:44:43;99136.67;;;28.67;45.96
70488;BME280;57976;48.174;16.370;2022-07-29T09:46:57;99133.29;;;28.63;46.10
70488;BME280;57976;48.174;16.370;2022-07-29T09:49:10;99138.61;;;28.59;46.42
70488;BME280;57976;48.174;16.370;2022-07-29T09:51:20;99136.62;;;28.62;46.26
70488;BME280;57976;48.174;16.370;2022-07-29T09:53:32;99131.23;;;28.67;46.16
70488;BME280;57976;48.174;16.370;2022-07-29T09:55:47;99130.22;;;28.73;45.97
70488;BME280;57976;48.174;16.370;2022-07-29T09:57:50;99125.95;;;28.77;45.75
70488;BME280;57976;48.174;16.370;2022-07-29T10:00:01;99121.71;;;28.81;45.88
70488;BME280;57976;48.174;16.370;2022-07-29T10:02:14;99125.38;;;28.86;46.10
70488;BME280;57976;48.174;16.370;2022-07-29T10:04:24;99123.91;;;28.95;46.18
70488;BME280;57976;48.174;16.370;2022-07-29T10:06:56;99124.94;;;28.99;45.88
70488;BME280;57976;48.174;16.370;2022-07-29T10:09:10;99125.20;;;28.99;45.59
70488;BME280;57976;48.174;16.370;2022-07-29T10:11:15;99125.56;;;28.97;46.07
70488;BME280;57976;48.174;16.370;2022-07-29T10:13:18;99126.59;;;28.97;46.00
70488;BME280;57976;48.174;16.370;2022-07-29T10:15:23;99119.52;;;28.99;46.34
70488;BME280;57976;48.174;16.370;2022-07-29T10:17:26;99120.88;;;29.04;46.54
70488;BME280;57976;48.174;16.370;2022-07-29T10:19:31;99117.16;;;29.08;46.04
70488;BME280;57976;48.174;16.370;2022-07-29T10:21:34;99112.98;;;29.07;45.95
70488;BME280;57976;48.174;16.370;2022-07-29T10:23:39;99108.06;;;29.09;46.09
70488;BME280;57976;48.174;16.370;2022-07-29T10:25:49;99108.13;;;29.19;46.26
70488;BME280;57976;48.174;16.370;2022-07-29T10:27:53;99108.80;;;29.30;46.34
70488;BME280;57976;48.174;16.370;2022-07-29T10:29:56;99108.03;;;29.42;46.13
70488;BME280;57976;48.174;16.370;2022-07-29T10:32:21;99115.45;;;29.52;45.52
70488;BME280;57976;48.174;16.370;2022-07-29T10:36:59;99117.14;;;29.49;45.55
70488;BME280;57976;48.174;16.370;2022-07-29T10:39:14;99107.38;;;29.39;45.27
70488;BME280;57976;48.174;16.370;2022-07-29T10:41:39;99104.20;;;29.26;45.60
70488;BME280;57976;48.174;16.370;2022-07-29T10:43:47;99104.98;;;29.14;45.61
70488;BME280;57976;48.174;16.370;2022-07-29T10:45:58;99102.73;;;29.02;45.88
70488;BME280;57976;48.174;16.370;2022-07-29T10:48:04;99107.76;;;28.91;45.87
70488;BME280;57976;48.174;16.370;2022-07-29T10:50:10;99103.04;;;28.82;46.00
70488;BME280;57976;48.174;16.370;2022-07-29T10:52:19;99099.36;;;28.82;46.02
70488;BME280;57976;48.174;16.370;2022-07-29T10:54:45;99100.86;;;28.84;46.25
70488;BME280;57976;48.174;16.370;2022-07-29T10:56:48;99096.05;;;28.91;45.88
70488;BME280;57976;48.174;16.370;2022-07-29T10:59:24;99094.52;;;28.99;45.81